.
WxDataArchive / Data Records for 2014-02-02
2014-02-01 February 2014 2014-02-03

Data Records for Sunday, 02 February 2014

Time	Temp	Chill	HIndex	Humid	Dewpt	 Wind 	HiWind	WindDir	Rain 	Barom 
-----	----	-----	------	-----	-----	------	------	-------	-----	----- 
00:00	29.8	29.8	29.8	95	28.5	0	3	270	0.00	29.992 
00:05	29.7	29.7	29.7	95	28.4	0	2	270	0.00	29.992 
00:10	29.5	29.5	29.5	95	28.2	0	2	270	0.00	29.992 
00:15	29.5	29.5	29.5	95	28.2	0	1	270	0.00	30.003 
00:20	29.4	29.4	29.4	95	28.1	0	1	270	0.00	30.003 
00:25	29.4	29.4	29.4	95	28.1	0	1	270	0.00	30.003 
00:30	29.3	29.3	29.3	95	28.0	0	3	248	0.00	30.002 
00:35	29.3	29.3	29.3	95	28.0	0	2	248	0.00	30.002 
00:40	29.3	29.3	29.3	95	28.0	0	2	270	0.00	30.002 
00:45	29.1	29.1	29.1	95	27.9	0	1	270	0.00	29.996 
00:50	29.1	29.1	29.1	94	27.6	0	1	270	0.00	29.996 
00:55	29.1	29.1	29.1	94	27.6	0	1	270	0.00	29.996 
01:00	29.0	29.0	29.0	94	27.5	0	1	270	0.00	29.999 
01:05	29.0	29.0	29.0	94	27.5	0	1	270	0.00	29.999 
01:10	29.0	29.0	29.0	94	27.5	0	2	270	0.00	29.999 
01:15	29.0	29.0	29.0	94	27.5	0	1	270	0.00	30.002 
01:20	28.8	28.8	28.8	94	27.3	0	1	270	0.00	30.002 
01:25	28.8	28.8	28.8	94	27.3	0	1	270	0.00	30.002 
01:30	28.7	28.7	28.7	94	27.2	0	1	270	0.00	30.005 
01:35	28.7	28.7	28.7	94	27.2	0	2	270	0.00	30.005 
01:40	28.5	28.5	28.5	94	27.0	0	1	270	0.00	30.005 
01:45	28.5	28.5	28.5	94	27.0	0	2	270	0.00	30.009 
01:50	28.5	28.5	28.5	94	27.0	0	1	270	0.00	30.009 
01:55	28.4	28.4	28.4	94	26.9	0	2	270	0.00	30.009 
02:00	28.2	28.2	28.2	94	26.7	0	2	270	0.00	30.021 
02:05	28.2	28.2	28.2	94	26.7	0	2	270	0.00	30.021 
02:10	28.1	28.1	28.1	94	26.6	0	2	270	0.00	30.021 
02:15	27.8	27.8	27.8	93	26.0	0	2	270	0.00	30.014 
02:20	27.6	27.6	27.6	93	25.8	0	3	270	0.00	30.014 
02:25	27.5	27.5	27.5	93	25.7	0	1	270	0.00	30.014 
02:30	27.3	27.3	27.3	93	25.5	0	2	270	0.00	30.033 
02:35	27.2	27.2	27.2	93	25.4	0	1	270	0.00	30.033 
02:40	27.2	27.2	27.2	93	25.4	0	2	270	0.00	30.033 
02:45	27.2	27.2	27.2	93	25.4	0	2	270	0.00	30.024 
02:50	27.0	27.0	27.0	93	25.3	0	1	270	0.00	30.024 
02:55	27.0	27.0	27.0	93	25.3	0	1	270	0.00	30.024 
03:00	27.0	27.0	27.0	93	25.3	0	1	270	0.00	30.039 
03:05	27.0	27.0	27.0	93	25.3	0	1	270	0.00	30.039 
03:10	27.0	27.0	27.0	93	25.3	0	1	270	0.00	30.039 
03:15	27.0	27.0	27.0	93	25.3	0	1	270	0.00	30.055 
03:20	27.0	27.0	27.0	93	25.3	0	1	270	0.00	30.055 
03:25	27.0	27.0	27.0	93	25.3	0	2	270	0.00	30.055 
03:30	26.9	26.9	26.9	93	25.2	0	2	270	0.00	30.040 
03:35	26.7	26.7	26.7	93	25.0	0	2	270	0.00	30.040 
03:40	26.7	26.7	26.7	93	25.0	0	3	270	0.00	30.040 
03:45	26.4	26.4	26.4	92	24.4	1	4	270	0.00	30.038 
03:50	26.3	26.3	26.3	92	24.3	1	3	270	0.00	30.038 
03:55	26.1	26.1	26.1	92	24.1	1	3	315	0.00	30.038 
04:00	26.1	26.1	26.1	92	24.1	0	2	315	0.00	30.045 
04:05	26.0	26.0	26.0	92	24.0	0	2	315	0.00	30.045 
04:10	25.8	25.8	25.8	92	23.8	1	3	270	0.00	30.045 
04:15	25.7	25.7	25.7	92	23.7	0	2	315	0.00	30.059 
04:20	25.6	25.6	25.6	92	23.6	1	3	315	0.00	30.059 
04:25	25.6	25.6	25.6	91	23.3	0	3	315	0.00	30.059 
04:30	25.7	25.7	25.7	91	23.4	0	2	315	0.00	30.056 
04:35	25.6	25.6	25.6	91	23.3	0	2	315	0.00	30.056 
04:40	25.4	25.4	25.4	91	23.1	0	1	315	0.00	30.056 
04:45	25.4	25.4	25.4	91	23.1	0	3	315	0.00	30.062 
04:50	25.4	25.4	25.4	91	23.1	0	2	315	0.00	30.062 
04:55	25.4	25.4	25.4	91	23.1	0	2	315	0.00	30.062 
05:00	25.4	25.4	25.4	91	23.1	0	2	315	0.00	30.061 
05:05	25.4	25.4	25.4	91	23.1	0	1	315	0.00	30.061 
05:10	25.3	25.3	25.3	91	23.0	0	1	315	0.00	30.061 
05:15	25.3	25.3	25.3	91	23.0	0	1	315	0.00	30.065 
05:20	25.1	25.1	25.1	90	22.6	0	2	315	0.00	30.065 
05:25	25.0	25.0	25.0	90	22.5	1	4	315	0.00	30.065 
05:30	24.8	24.8	24.8	90	22.3	1	3	338	0.00	30.090 
05:35	24.8	24.8	24.8	90	22.3	0	2	315	0.00	30.090 
05:40	24.8	24.8	24.8	90	22.3	0	3	315	0.00	30.090 
05:45	24.8	24.8	24.8	89	22.0	0	2	315	0.00	30.086 
05:50	24.8	24.8	24.8	89	22.0	0	1	315	0.00	30.086 
05:55	24.8	24.8	24.8	89	22.0	1	3	270	0.00	30.086 
06:00	24.8	24.8	24.8	89	22.0	0	1	270	0.00	30.088 
06:05	24.8	24.8	24.8	89	22.0	0	2	315	0.00	30.088 
06:10	24.7	24.7	24.7	89	21.9	1	3	315	0.00	30.088 
06:15	24.7	24.7	24.7	89	21.9	0	2	292	0.00	30.085 
06:20	24.7	24.7	24.7	88	21.7	0	3	292	0.00	30.085 
06:25	24.7	24.7	24.7	88	21.7	0	2	0	0.00	30.085 
06:30	24.7	24.7	24.7	88	21.7	0	1	292	0.00	30.076 
06:35	24.7	24.7	24.7	88	21.7	0	3	315	0.00	30.076 
06:40	24.7	24.7	24.7	88	21.7	0	1	315	0.00	30.076 
06:45	24.7	24.7	24.7	88	21.7	0	2	338	0.00	30.086 
06:50	24.7	24.7	24.7	88	21.7	0	1	315	0.00	30.086 
06:55	24.7	24.7	24.7	88	21.7	0	1	315	0.00	30.086 
07:00	24.7	24.7	24.7	88	21.7	0	2	315	0.00	30.090 
07:05	24.7	24.7	24.7	88	21.7	0	1	315	0.00	30.090 
07:10	24.7	24.7	24.7	88	21.7	0	0	---	0.00	30.090 
07:15	24.7	24.7	24.7	88	21.7	0	1	315	0.00	30.106 
07:20	24.7	24.7	24.7	89	21.9	0	0	---	0.00	30.106 
07:25	24.7	24.7	24.7	89	21.9	0	1	315	0.00	30.106 
07:30	24.5	24.5	24.5	89	21.7	0	0	---	0.00	30.111 
07:35	24.7	24.7	24.7	89	21.9	0	0	---	0.00	30.111 
07:40	24.5	24.5	24.5	89	21.7	0	1	315	0.00	30.111 
07:45	24.5	24.5	24.5	89	21.7	0	0	---	0.00	30.117 
07:50	24.5	24.5	24.5	89	21.7	0	0	---	0.00	30.117 
07:55	24.4	24.4	24.4	89	21.6	0	0	---	0.00	30.117 
08:00	24.4	24.4	24.4	89	21.6	0	0	---	0.00	30.122 
08:05	24.2	24.2	24.2	89	21.4	0	1	315	0.00	30.122 
08:10	24.2	24.2	24.2	89	21.4	0	0	---	0.00	30.122 
08:15	24.2	24.2	24.2	89	21.4	0	0	---	0.00	30.126 
08:20	24.2	24.2	24.2	89	21.4	0	0	---	0.00	30.126 
08:25	24.1	24.1	24.1	89	21.3	0	0	---	0.00	30.126 
08:30	24.1	24.1	24.1	89	21.3	0	0	---	0.00	30.136 
08:35	24.1	24.1	24.1	89	21.3	0	0	---	0.00	30.136 
08:40	24.1	24.1	24.1	89	21.3	0	1	315	0.00	30.136 
08:45	24.2	24.2	24.2	89	21.4	0	0	---	0.00	30.138 
08:50	24.2	24.2	24.2	89	21.4	0	0	---	0.00	30.138 
08:55	24.4	24.4	24.4	89	21.6	0	0	---	0.00	30.138 
09:00	24.5	24.5	24.5	89	21.7	0	1	315	0.01	30.139 
09:05	24.7	24.7	24.7	89	21.9	0	2	315	0.00	30.139 
09:10	24.7	24.7	24.7	89	21.9	0	2	315	0.00	30.139 
09:15	24.8	24.8	24.8	89	22.0	0	1	315	0.00	30.163 
09:20	24.8	24.8	24.8	88	21.8	0	2	315	0.00	30.163 
09:25	25.0	25.0	25.0	88	22.0	0	1	315	0.00	30.163 
09:30	25.0	25.0	25.0	88	22.0	1	2	315	0.00	30.159 
09:35	25.0	25.0	25.0	88	22.0	1	4	270	0.00	30.159 
09:40	25.0	25.0	25.0	87	21.7	1	4	270	0.00	30.159 
09:45	25.1	25.1	25.1	87	21.8	0	2	292	0.00	30.174 
09:50	25.1	25.1	25.1	87	21.8	0	3	292	0.00	30.174 
09:55	25.3	25.3	25.3	87	22.0	1	4	292	0.00	30.174 
10:00	25.3	25.3	25.3	87	22.0	1	3	338	0.00	30.176 
10:05	25.3	25.3	25.3	86	21.7	1	3	270	0.00	30.176 
10:10	25.3	25.3	25.3	86	21.7	1	3	315	0.00	30.176 
10:15	25.4	25.4	25.4	86	21.8	0	3	292	0.00	30.183 
10:20	25.6	25.6	25.6	86	22.0	0	2	292	0.00	30.183 
10:25	25.6	25.6	25.6	85	21.7	1	3	292	0.00	30.183 
10:30	25.6	25.6	25.6	85	21.7	1	3	315	0.00	30.190 
10:35	25.6	25.6	25.6	84	21.5	1	4	270	0.00	30.190 
10:40	25.7	25.7	25.7	84	21.5	1	3	270	0.00	30.190 
10:45	25.8	25.8	25.8	83	21.4	1	3	270	0.00	30.197 
10:50	25.8	25.8	25.8	83	21.4	1	3	270	0.00	30.197 
10:55	26.0	26.0	26.0	83	21.6	0	2	270	0.00	30.197 
11:00	26.0	26.0	26.0	82	21.3	1	2	270	0.00	30.197 
11:05	26.1	26.1	26.1	82	21.4	1	6	270	0.00	30.197 
11:10	26.1	26.1	26.1	82	21.4	0	3	315	0.00	30.197 
11:15	26.1	26.1	26.1	81	21.1	1	5	292	0.00	30.199 
11:20	26.1	26.1	26.1	81	21.1	1	3	292	0.00	30.199 
11:25	26.0	26.0	26.0	81	21.0	1	3	270	0.00	30.199 
11:30	26.1	26.1	26.1	81	21.1	0	2	270	0.00	30.202 
11:35	26.1	26.1	26.1	81	21.1	0	2	270	0.00	30.202 
11:40	26.3	26.3	26.3	81	21.3	0	2	270	0.00	30.202 
11:45	26.3	26.3	26.3	81	21.3	0	2	270	0.00	30.197 
11:50	26.3	26.3	26.3	81	21.3	1	4	270	0.00	30.197 
11:55	26.3	26.3	26.3	80	21.0	1	3	315	0.00	30.197 
12:00	26.1	26.1	26.1	80	20.8	1	3	315	0.00	30.207 
12:05	26.1	26.1	26.1	79	20.5	1	3	292	0.00	30.207 
12:10	26.3	26.3	26.3	80	21.0	0	2	292	0.00	30.207 
12:15	26.3	26.3	26.3	79	20.7	1	3	292	0.00	30.213 
12:20	26.3	26.3	26.3	79	20.7	0	3	292	0.00	30.213 
12:25	26.4	26.4	26.4	80	21.1	1	3	292	0.00	30.213 
12:30	26.6	26.6	26.6	79	21.0	0	2	292	0.00	30.202 
12:35	26.7	26.7	26.7	79	21.1	0	2	292	0.00	30.202 
12:40	27.0	27.0	27.0	79	21.4	0	2	292	0.00	30.202 
12:45	27.0	27.0	27.0	78	21.1	1	3	292	0.00	30.202 
12:50	27.2	27.2	27.2	78	21.3	1	3	292	0.00	30.202 
12:55	27.3	27.3	27.3	78	21.4	0	1	315	0.00	30.202 
13:00	27.5	27.5	27.5	77	21.3	0	2	315	0.00	30.178 
13:05	27.6	27.6	27.6	77	21.4	0	2	315	0.00	30.178 
13:10	27.5	27.5	27.5	77	21.3	0	3	315	0.00	30.178 
13:15	27.5	27.5	27.5	77	21.3	1	3	292	0.00	30.160 
13:20	27.2	27.2	27.2	77	21.0	1	3	315	0.00	30.160 
13:25	27.2	27.2	27.2	76	20.7	1	3	315	0.00	30.160 
13:30	27.0	27.0	27.0	76	20.5	1	4	270	0.00	30.162 
13:35	26.9	26.9	26.9	75	20.1	1	5	338	0.00	30.162 
13:40	26.9	26.9	26.9	75	20.1	1	3	315	0.00	30.162 
13:45	26.9	26.9	26.9	75	20.1	2	4	338	0.00	30.173 
13:50	27.0	27.0	27.0	76	20.5	1	2	292	0.00	30.173 
13:55	26.9	26.9	26.9	76	20.4	1	3	292	0.00	30.173 
14:00	26.7	26.7	26.7	76	20.2	1	5	292	0.00	30.175 
14:05	26.6	26.6	26.6	75	19.8	2	4	315	0.00	30.175 
14:10	26.6	26.6	26.6	74	19.5	1	5	248	0.00	30.175 
14:15	26.6	26.6	26.6	75	19.8	1	3	338	0.00	30.167 
14:20	26.7	26.7	26.7	75	19.9	0	2	338	0.00	30.167 
14:25	26.6	26.6	26.6	75	19.8	1	5	338	0.00	30.167 
14:30	26.1	26.1	26.1	75	19.3	2	4	338	0.00	30.160 
14:35	25.8	25.8	25.8	74	18.7	2	4	270	0.00	30.160 
14:40	25.7	25.7	25.7	74	18.6	1	3	315	0.00	30.160 
14:45	25.6	25.6	25.6	73	18.2	1	4	292	0.00	30.201 
14:50	25.6	25.6	25.6	73	18.2	1	4	315	0.00	30.201 
14:55	25.6	25.6	25.6	72	17.8	2	4	270	0.00	30.201 
15:00	25.4	25.4	25.4	71	17.3	1	3	315	0.00	30.185 
15:05	25.4	25.4	25.4	70	17.0	1	4	315	0.00	30.185 
15:10	25.4	25.4	25.4	70	17.0	1	4	315	0.00	30.185 
15:15	25.6	25.6	25.6	69	16.9	1	4	315	0.00	30.200 
15:20	25.6	25.6	25.6	70	17.2	0	2	315	0.00	30.200 
15:25	25.7	25.7	25.7	70	17.3	1	4	315	0.00	30.200 
15:30	25.7	25.7	25.7	70	17.3	0	2	315	0.00	30.223 
15:35	25.8	25.8	25.8	70	17.4	1	3	315	0.00	30.223 
15:40	25.7	25.7	25.7	69	17.0	1	4	248	0.00	30.223 
15:45	25.6	25.6	25.6	69	16.9	0	2	0	0.00	30.229 
15:50	25.6	25.6	25.6	69	16.9	0	2	338	0.00	30.229 
15:55	25.6	25.6	25.6	68	16.5	1	4	338	0.00	30.229 
16:00	25.4	25.4	25.4	69	16.7	1	4	338	0.00	30.233 
16:05	25.4	25.4	25.4	69	16.7	1	3	270	0.00	30.233 
16:10	25.3	25.3	25.3	69	16.6	1	3	270	0.00	30.233 
16:15	25.1	25.1	25.1	68	16.1	1	4	270	0.00	30.226 
16:20	25.1	25.1	25.1	69	16.4	0	2	292	0.00	30.226 
16:25	25.0	25.0	25.0	68	16.0	1	3	292	0.00	30.226 
16:30	25.0	25.0	25.0	69	16.3	0	2	292	0.00	30.228 
16:35	25.0	25.0	25.0	69	16.3	1	3	292	0.00	30.228 
16:40	25.0	25.0	25.0	69	16.3	0	2	292	0.00	30.228 
16:45	25.0	25.0	25.0	69	16.3	0	2	292	0.00	30.226 
16:50	24.8	24.8	24.8	69	16.1	1	2	292	0.00	30.226 
16:55	24.7	24.7	24.7	69	16.0	1	3	292	0.00	30.226 
17:00	24.7	24.7	24.7	69	16.0	0	2	292	0.00	30.227 
17:05	24.5	24.5	24.5	69	15.8	0	2	292	0.00	30.227 
17:10	24.5	24.5	24.5	69	15.8	1	4	292	0.00	30.227 
17:15	24.4	24.4	24.4	69	15.7	0	2	315	0.00	30.244 
17:20	24.4	24.4	24.4	70	16.0	0	2	315	0.00	30.244 
17:25	24.4	24.4	24.4	70	16.0	0	2	315	0.00	30.244 
17:30	24.4	24.4	24.4	70	16.0	0	2	315	0.00	30.250 
17:35	24.2	24.2	24.2	69	15.5	0	2	315	0.00	30.250 
17:40	24.2	24.2	24.2	69	15.5	0	2	315	0.00	30.250 
17:45	24.1	24.1	24.1	70	15.8	0	1	315	0.00	30.253 
17:50	24.1	24.1	24.1	70	15.8	0	3	292	0.00	30.253 
17:55	24.1	24.1	24.1	70	15.8	0	2	292	0.00	30.253 
18:00	23.9	23.9	23.9	70	15.6	0	1	292	0.00	30.262 
18:05	23.9	23.9	23.9	70	15.6	0	2	292	0.00	30.262 
18:10	23.8	23.8	23.8	71	15.8	0	1	292	0.00	30.262 
18:15	23.8	23.8	23.8	71	15.8	0	3	292	0.00	30.260 
18:20	23.6	23.6	23.6	71	15.6	0	1	292	0.00	30.260 
18:25	23.5	23.5	23.5	71	15.5	0	2	292	0.00	30.260 
18:30	23.3	23.3	23.3	70	15.0	1	3	292	0.00	30.258 
18:35	23.2	23.2	23.2	70	14.9	0	3	315	0.00	30.258 
18:40	23.2	23.2	23.2	70	14.9	0	2	315	0.00	30.258 
18:45	23.0	23.0	23.0	70	14.7	0	2	315	0.00	30.255 
18:50	22.9	22.9	22.9	71	14.9	1	3	292	0.00	30.255 
18:55	22.9	22.9	22.9	71	14.9	1	4	315	0.00	30.255 
19:00	22.7	22.7	22.7	71	14.7	0	1	315	0.00	30.271 
19:05	22.7	22.7	22.7	71	14.7	0	3	315	0.00	30.271 
19:10	22.5	22.5	22.5	71	14.5	0	2	292	0.00	30.271 
19:15	22.4	22.4	22.4	72	14.8	0	2	292	0.00	30.270 
19:20	22.4	22.4	22.4	72	14.8	0	3	292	0.00	30.270 
19:25	22.4	22.4	22.4	72	14.8	0	2	292	0.00	30.270 
19:30	22.2	22.2	22.2	72	14.6	0	2	292	0.00	30.277 
19:35	22.2	22.2	22.2	72	14.6	0	2	292	0.00	30.277 
19:40	22.1	22.1	22.1	73	14.8	0	3	292	0.00	30.277 
19:45	22.1	22.1	22.1	73	14.8	0	2	292	0.00	30.275 
19:50	21.9	21.9	21.9	73	14.6	0	2	292	0.00	30.275 
19:55	21.9	21.9	21.9	73	14.6	0	2	292	0.00	30.275 
20:00	21.8	21.8	21.8	73	14.5	0	1	292	0.00	30.263 
20:05	21.6	21.6	21.6	73	14.3	0	1	292	0.00	30.263 
20:10	21.6	21.6	21.6	74	14.6	0	1	292	0.00	30.263 
20:15	21.3	21.3	21.3	74	14.3	0	1	292	0.00	30.264 
20:20	21.1	21.1	21.1	74	14.1	0	2	292	0.00	30.264 
20:25	20.8	20.8	20.8	74	13.8	0	2	292	0.00	30.264 
20:30	20.6	20.6	20.6	74	13.7	0	1	292	0.00	30.260 
20:35	20.5	20.5	20.5	74	13.6	0	1	292	0.00	30.260 
20:40	20.5	20.5	20.5	74	13.6	0	2	292	0.00	30.260 
20:45	20.5	20.5	20.5	74	13.6	0	1	292	0.00	30.278 
20:50	20.5	20.5	20.5	74	13.6	0	3	292	0.00	30.278 
20:55	20.3	20.3	20.3	74	13.4	0	2	292	0.00	30.278 
21:00	20.3	20.3	20.3	74	13.4	0	2	292	0.00	30.275 
21:05	20.2	20.2	20.2	74	13.3	0	1	292	0.00	30.275 
21:10	20.0	20.0	20.0	74	13.1	0	2	292	0.00	30.275 
21:15	19.9	19.9	19.9	74	13.0	0	2	292	0.00	30.251 
21:20	19.7	19.7	19.7	74	12.8	0	2	22	0.00	30.251 
21:25	19.4	19.4	19.4	74	12.5	0	1	22	0.00	30.251 
21:30	19.2	19.2	19.2	74	12.3	0	2	22	0.00	30.264 
21:35	19.1	19.1	19.1	75	12.5	0	2	22	0.00	30.264 
21:40	19.1	19.1	19.1	75	12.5	0	2	22	0.00	30.264 
21:45	18.9	18.9	18.9	75	12.3	0	2	22	0.00	30.261 
21:50	18.8	18.8	18.8	75	12.2	0	1	22	0.00	30.261 
21:55	18.6	18.6	18.6	75	12.0	0	1	22	0.00	30.261 
22:00	18.6	18.6	18.6	75	12.0	0	1	22	0.00	30.272 
22:05	18.6	18.6	18.6	75	12.0	0	0	---	0.00	30.272 
22:10	18.4	18.4	18.4	75	11.8	0	0	---	0.00	30.272 
22:15	18.4	18.4	18.4	76	12.1	0	1	22	0.00	30.267 
22:20	18.3	18.3	18.3	76	12.0	0	1	22	0.00	30.267 
22:25	18.3	18.3	18.3	76	12.0	0	1	22	0.00	30.267 
22:30	18.3	18.3	18.3	76	12.0	0	1	22	0.00	30.270 
22:35	18.3	18.3	18.3	76	12.0	0	1	22	0.00	30.270 
22:40	18.1	18.1	18.1	76	11.8	0	0	---	0.00	30.270 
22:45	18.0	18.0	18.0	76	11.7	0	0	---	0.00	30.271 
22:50	18.0	18.0	18.0	76	11.7	0	0	---	0.00	30.271 
22:55	18.0	18.0	18.0	76	11.7	0	1	22	0.00	30.271 
23:00	17.8	17.8	17.8	76	11.5	0	0	---	0.00	30.271 
23:05	17.8	17.8	17.8	77	11.8	0	0	---	0.00	30.271 
23:10	17.8	17.8	17.8	77	11.8	0	0	---	0.00	30.271 
23:15	17.8	17.8	17.8	77	11.8	0	0	---	0.00	30.272 
23:20	17.8	17.8	17.8	77	11.8	0	1	22	0.00	30.272 
23:25	17.8	17.8	17.8	77	11.8	0	0	---	0.00	30.272 
23:30	17.7	17.7	17.7	77	11.7	0	1	22	0.00	30.290 
23:35	17.8	17.8	17.8	77	11.8	0	1	22	0.00	30.290 
23:40	17.8	17.8	17.8	77	11.8	0	0	---	0.00	30.290 
23:45	17.7	17.7	17.7	77	11.7	0	0	---	0.00	30.294 
23:50	17.7	17.7	17.7	77	11.7	0	1	22	0.00	30.294 
23:55	17.5	17.5	17.5	77	11.5	0	1	22	0.00	30.294 

CoCoRaHS
IN-AL-39
A2 Web Hosting
Creative Commons License
GoDaddy
search engine by freefind advanced

loaded 2018-11-20 07:05:56 • last modified 2010-11-18 10:43:29
Privacy PolicyDisclaimer
• wx.awcolley.com is powered by PmWiki v.2002016 •
• all content (unless otherwise noted) © 2018 A W Colley